createdAt,value
2023-04-20T00:00:16.018Z,6.35
2023-04-20T00:02:45.391Z,6.28
2023-04-20T00:05:13.832Z,8.27
2023-04-20T00:07:43.120Z,8.80
2023-04-20T00:10:12.850Z,7.40
2023-04-20T00:12:40.963Z,6.65
2023-04-20T00:15:09.694Z,5.78
2023-04-20T00:17:39.745Z,6.45
2023-04-20T00:20:10.017Z,6.20
2023-04-20T00:22:38.174Z,5.78
2023-04-20T00:25:07.042Z,7.22
2023-04-20T00:27:36.577Z,7.32
2023-04-20T00:30:04.956Z,7.00
2023-04-20T00:32:33.055Z,6.40
2023-04-20T00:35:01.420Z,5.93
2023-04-20T00:37:29.767Z,7.38
2023-04-20T00:39:58.988Z,7.40
2023-04-20T00:42:27.027Z,7.18
2023-04-20T00:44:56.533Z,7.22
2023-04-20T00:47:24.744Z,6.65
2023-04-20T00:49:54.088Z,5.90
2023-04-20T00:52:22.589Z,5.53
2023-04-20T00:54:50.968Z,5.55
2023-04-20T00:57:24.083Z,5.40
2023-04-20T00:59:52.539Z,6.65
2023-04-20T01:02:22.256Z,6.20
2023-04-20T01:04:50.503Z,5.82
2023-04-20T01:07:18.597Z,7.10
2023-04-20T01:09:46.654Z,6.10
2023-04-20T01:12:14.713Z,6.20
2023-04-20T01:14:42.792Z,7.07
2023-04-20T01:17:10.878Z,7.38
2023-04-20T01:19:41.079Z,7.30
2023-04-20T01:22:09.250Z,6.85
2023-04-20T01:24:38.762Z,7.70
2023-04-20T01:27:06.846Z,7.03
2023-04-20T01:29:35.067Z,6.55
2023-04-20T01:32:03.243Z,8.07
2023-04-20T01:34:31.261Z,8.25
2023-04-20T01:36:59.565Z,7.80
2023-04-20T01:39:27.878Z,7.70
2023-04-20T01:41:58.091Z,7.78
2023-04-20T01:44:26.139Z,8.05
2023-04-20T01:46:54.248Z,8.05
2023-04-20T01:49:22.364Z,7.95
2023-04-20T01:51:50.476Z,7.25
2023-04-20T01:54:18.531Z,7.47
2023-04-20T01:56:46.540Z,7.35
2023-04-20T01:59:16.414Z,6.30
2023-04-20T02:01:44.657Z,8.07
2023-04-20T02:04:12.709Z,8.50
2023-04-20T02:06:41.015Z,8.65
2023-04-20T02:09:09.922Z,8.75
2023-04-20T02:11:38.074Z,8.23
2023-04-20T02:14:06.158Z,7.78
2023-04-20T02:16:36.715Z,6.93
2023-04-20T02:19:05.153Z,8.05
2023-04-20T02:21:33.345Z,8.95
2023-04-20T02:24:01.643Z,7.85
2023-04-20T02:26:29.630Z,8.27
2023-04-20T02:28:57.705Z,7.53
2023-04-20T02:31:26.016Z,7.68
2023-04-20T02:33:55.552Z,8.18
2023-04-20T02:36:23.704Z,7.93
2023-04-20T02:38:51.779Z,7.30
2023-04-20T02:41:20.156Z,7.32
2023-04-20T02:43:48.223Z,8.07
2023-04-20T02:46:16.692Z,8.05
2023-04-20T02:48:45.012Z,8.32
2023-04-20T02:51:14.531Z,8.27
2023-04-20T02:53:42.678Z,10.52
2023-04-20T02:56:10.980Z,9.98
2023-04-20T02:58:39.044Z,11.93
2023-04-20T03:01:07.244Z,11.05
2023-04-20T03:03:35.482Z,11.07
2023-04-20T03:06:03.573Z,11.13
2023-04-20T03:08:33.039Z,9.60
2023-04-20T03:11:01.071Z,8.75
2023-04-20T03:13:29.147Z,8.18
2023-04-20T03:15:57.318Z,8.40
2023-04-20T03:18:25.530Z,7.97
2023-04-20T03:20:54.021Z,8.02
2023-04-20T03:23:22.089Z,9.23
2023-04-20T03:25:51.806Z,8.02
2023-04-20T03:28:19.967Z,7.65
2023-04-20T03:30:48.044Z,8.82
2023-04-20T03:33:16.109Z,8.18
2023-04-20T03:35:44.181Z,7.55
2023-04-20T03:38:12.186Z,7.82
2023-04-20T03:40:40.317Z,8.30
2023-04-20T03:43:11.334Z,7.75
2023-04-20T03:45:39.470Z,7.93
2023-04-20T03:48:07.704Z,6.68
2023-04-20T03:50:35.782Z,6.78
2023-04-20T03:53:03.965Z,9.05
2023-04-20T03:55:32.043Z,7.95
2023-04-20T03:58:00.177Z,8.20
2023-04-20T04:00:29.718Z,8.40
2023-04-20T04:02:57.850Z,8.77
2023-04-20T04:05:26.580Z,9.20
2023-04-20T04:08:01.288Z,8.52
2023-04-20T04:10:29.444Z,9.15
2023-04-20T04:12:57.741Z,8.90
2023-04-20T04:15:25.974Z,8.55
2023-04-20T04:17:57.027Z,8.50
2023-04-20T04:20:25.088Z,7.43
2023-04-20T04:22:53.341Z,6.97
2023-04-20T04:25:23.347Z,8.10
2023-04-20T04:27:51.472Z,7.07
2023-04-20T04:30:20.041Z,6.38
2023-04-20T04:32:49.223Z,7.03
2023-04-20T04:35:18.945Z,7.18
2023-04-20T04:37:47.645Z,7.15
2023-04-20T04:40:16.313Z,6.65
2023-04-20T04:42:45.526Z,6.32
2023-04-20T04:45:14.519Z,6.25
2023-04-20T04:47:43.952Z,5.30
2023-04-20T04:50:13.135Z,5.82
2023-04-20T04:52:42.767Z,5.68
2023-04-20T04:55:11.477Z,5.63
2023-04-20T04:57:39.706Z,5.57
2023-04-20T05:00:12.600Z,5.60
2023-04-20T05:02:41.063Z,5.78
2023-04-20T05:05:10.245Z,6.13
2023-04-20T05:07:40.262Z,5.88
2023-04-20T05:10:10.276Z,6.15
2023-04-20T05:12:39.193Z,6.38
2023-04-20T05:15:08.625Z,6.38
2023-04-20T05:17:36.699Z,5.82
2023-04-20T05:20:06.418Z,5.90
2023-04-20T05:22:34.457Z,5.20
2023-04-20T05:25:02.538Z,6.00
2023-04-20T05:27:32.051Z,5.70
2023-04-20T05:30:12.676Z,4.93
2023-04-20T05:32:45.117Z,5.50
2023-04-20T05:35:13.265Z,6.68
2023-04-20T05:37:41.345Z,6.15
2023-04-20T05:40:11.394Z,6.00
2023-04-20T05:42:41.021Z,7.00
2023-04-20T05:45:10.524Z,6.35
2023-04-20T05:47:38.726Z,5.90
2023-04-20T05:50:08.119Z,6.13
2023-04-20T05:52:36.220Z,6.40
2023-04-20T05:55:04.498Z,5.35
2023-04-20T05:57:32.516Z,6.63
2023-04-20T06:00:03.781Z,5.40
2023-04-20T06:02:32.039Z,4.95
2023-04-20T06:05:01.264Z,3.75
2023-04-20T06:07:29.443Z,3.55
2023-04-20T06:09:57.635Z,3.60
2023-04-20T06:12:26.849Z,4.15
2023-04-20T06:14:54.924Z,3.30
2023-04-20T06:17:24.452Z,3.90
2023-04-20T06:19:52.704Z,3.33
2023-04-20T06:22:20.867Z,3.88
2023-04-20T06:24:48.892Z,3.60
2023-04-20T06:27:16.971Z,3.60
2023-04-20T06:29:45.197Z,3.45
2023-04-20T06:32:13.266Z,3.55
2023-04-20T06:34:42.676Z,3.55
2023-04-20T06:37:11.035Z,4.10
2023-04-20T06:39:39.182Z,3.08
2023-04-20T06:42:08.719Z,3.40
2023-04-20T06:44:36.859Z,4.20
2023-04-20T06:47:05.145Z,4.78
2023-04-20T06:49:33.252Z,3.75
2023-04-20T06:52:02.767Z,3.63
2023-04-20T06:54:30.827Z,3.72
2023-04-20T06:56:59.068Z,3.67
2023-04-20T06:59:27.166Z,3.85
2023-04-20T07:01:55.304Z,3.90
2023-04-20T07:04:23.550Z,4.40
2023-04-20T07:06:54.006Z,4.25
2023-04-20T07:09:24.894Z,4.18
2023-04-20T07:11:53.000Z,7.38
2023-04-20T07:14:21.444Z,3.67
2023-04-20T07:16:53.160Z,3.70
2023-04-20T07:19:21.429Z,3.50
2023-04-20T07:21:49.487Z,3.25
2023-04-20T07:24:17.580Z,3.78
2023-04-20T07:26:47.013Z,3.83
2023-04-20T07:29:15.127Z,3.85
2023-04-20T07:31:43.311Z,4.13
2023-04-20T07:34:11.990Z,3.55
2023-04-20T07:36:40.130Z,3.50
2023-04-20T07:39:08.291Z,3.22
2023-04-20T07:41:37.098Z,3.75
2023-04-20T07:44:06.764Z,3.97
2023-04-20T07:46:34.828Z,3.15
2023-04-20T07:49:02.880Z,3.92
2023-04-20T07:51:32.418Z,3.92
2023-04-20T07:54:00.482Z,3.25
2023-04-20T07:56:28.581Z,3.47
2023-04-20T07:58:56.566Z,3.67
2023-04-20T08:01:27.037Z,3.88
2023-04-20T08:03:56.329Z,3.17
2023-04-20T08:06:24.605Z,3.33
2023-04-20T08:08:53.075Z,4.00
2023-04-20T08:11:21.812Z,4.20
2023-04-20T08:13:49.879Z,4.15
2023-04-20T08:16:17.980Z,3.60
2023-04-20T08:18:47.487Z,3.28
2023-04-20T08:21:15.571Z,3.45
2023-04-20T08:23:43.612Z,3.38
2023-04-20T08:26:17.049Z,3.72
2023-04-20T08:28:45.493Z,3.83
2023-04-20T08:31:14.866Z,3.45
2023-04-20T08:33:42.918Z,3.72
2023-04-20T08:36:12.792Z,3.50
2023-04-20T08:38:40.929Z,3.05
2023-04-20T08:41:11.572Z,3.17
2023-04-20T08:43:39.630Z,3.53
2023-04-20T08:46:08.920Z,3.65
2023-04-20T08:48:38.970Z,3.63
2023-04-20T08:51:07.507Z,3.97
2023-04-20T08:53:36.997Z,2.78
2023-04-20T08:56:05.464Z,2.78
2023-04-20T08:58:34.151Z,2.92
2023-04-20T09:01:02.177Z,2.88
2023-04-20T09:03:35.260Z,3.95
2023-04-20T09:06:03.473Z,2.92
2023-04-20T09:08:38.219Z,2.72
2023-04-20T09:11:06.620Z,2.92
2023-04-20T09:13:35.357Z,2.70
2023-04-20T09:16:14.107Z,3.03
2023-04-20T09:18:52.440Z,3.75
2023-04-20T09:21:20.479Z,2.30
2023-04-20T09:23:59.382Z,2.42
2023-04-20T09:26:27.410Z,2.40
2023-04-20T09:28:55.547Z,2.75
2023-04-20T09:31:25.543Z,2.35
2023-04-20T09:34:01.346Z,2.05
2023-04-20T09:36:40.121Z,2.50
2023-04-20T09:39:11.262Z,2.53
2023-04-20T09:41:41.592Z,2.05
2023-04-20T09:44:11.164Z,2.60
2023-04-20T09:46:41.395Z,2.70
2023-04-20T09:49:11.093Z,2.50
2023-04-20T09:51:45.202Z,2.55
2023-04-20T09:54:16.437Z,2.60
2023-04-20T09:56:44.915Z,2.25
2023-04-20T09:59:13.529Z,2.90
2023-04-20T10:01:41.850Z,2.58
2023-04-20T10:04:12.477Z,3.00
2023-04-20T10:06:40.763Z,2.83
2023-04-20T10:09:09.822Z,3.15
2023-04-20T10:11:52.797Z,2.90
2023-04-20T10:14:24.317Z,3.30
2023-04-20T10:17:01.795Z,2.55
2023-04-20T10:19:39.467Z,3.75
2023-04-20T10:22:08.400Z,2.90
2023-04-20T10:24:38.218Z,3.15
2023-04-20T10:27:18.099Z,2.60
2023-04-20T10:29:46.958Z,2.75
2023-04-20T10:32:23.761Z,2.75
2023-04-20T10:35:04.882Z,3.28
2023-04-20T10:37:33.073Z,2.67
2023-04-20T10:40:01.501Z,3.00
2023-04-20T10:42:31.052Z,2.85
2023-04-20T10:44:59.093Z,2.90
2023-04-20T10:47:31.988Z,2.97
2023-04-20T10:50:11.555Z,2.80
2023-04-20T10:52:41.112Z,3.00
2023-04-20T10:55:20.248Z,3.00
2023-04-20T10:57:49.773Z,2.97
2023-04-20T11:00:20.603Z,2.45
2023-04-20T11:02:50.487Z,2.95
2023-04-20T11:05:19.193Z,2.42
2023-04-20T11:07:54.237Z,2.45
2023-04-20T11:10:23.539Z,2.47
2023-04-20T11:12:53.344Z,2.35
2023-04-20T11:15:31.972Z,2.20
2023-04-20T11:18:08.476Z,2.70
2023-04-20T11:20:37.257Z,2.70
2023-04-20T11:23:06.174Z,2.60
2023-04-20T11:25:34.242Z,2.53
2023-04-20T11:28:09.868Z,2.80
2023-04-20T11:30:42.297Z,2.47
2023-04-20T11:35:40.078Z,2.20
2023-04-20T11:38:08.456Z,2.65
2023-04-20T11:40:37.270Z,2.35
2023-04-20T11:43:05.715Z,2.10
2023-04-20T11:45:36.740Z,2.75
2023-04-20T11:48:06.551Z,2.78
2023-04-20T11:50:34.717Z,2.47
2023-04-20T11:53:03.565Z,2.50
2023-04-20T11:55:31.658Z,2.60
2023-04-20T11:57:59.746Z,2.30
2023-04-20T12:00:27.889Z,2.33
2023-04-20T12:02:57.512Z,2.10
2023-04-20T12:05:25.830Z,2.22
2023-04-20T12:07:53.917Z,3.00
2023-04-20T12:10:22.049Z,2.33
2023-04-20T12:12:50.246Z,2.03
2023-04-20T12:15:18.575Z,1.88
2023-04-20T12:17:46.790Z,1.95
2023-04-20T12:20:16.504Z,1.80
2023-04-20T12:22:44.592Z,2.15
2023-04-20T12:25:12.713Z,2.10
2023-04-20T12:27:41.291Z,1.92
2023-04-20T12:30:10.653Z,2.13
2023-04-20T12:32:39.278Z,2.00
2023-04-20T12:35:08.621Z,2.10
2023-04-20T12:37:38.209Z,1.90
2023-04-20T12:40:07.577Z,1.67
2023-04-20T12:42:35.688Z,2.10
2023-04-20T12:45:03.920Z,1.77
2023-04-20T12:47:32.040Z,2.00
2023-04-20T12:50:00.182Z,1.67
2023-04-20T12:52:29.194Z,1.95
2023-04-20T12:54:58.660Z,1.85
2023-04-20T12:57:26.805Z,2.10
2023-04-20T12:59:54.949Z,1.85
2023-04-20T13:02:23.141Z,2.03
2023-04-20T13:04:52.151Z,1.58
2023-04-20T13:07:20.346Z,1.80
2023-04-20T13:09:48.421Z,1.70
2023-04-20T13:12:18.088Z,1.75
2023-04-20T13:14:46.198Z,2.20
2023-04-20T13:17:14.416Z,1.83
2023-04-20T13:19:42.592Z,1.60
2023-04-20T13:22:13.184Z,1.88
2023-04-20T13:27:11.106Z,1.80
2023-04-20T13:29:40.748Z,2.20
2023-04-20T13:32:08.931Z,2.00
2023-04-20T13:34:37.124Z,1.70
2023-04-20T13:37:05.470Z,1.77
2023-04-20T13:39:33.674Z,1.92
2023-04-20T13:42:01.879Z,1.60
2023-04-20T13:44:30.100Z,2.00
2023-04-20T13:47:00.671Z,1.75
2023-04-20T13:49:28.822Z,1.88
2023-04-20T13:51:56.848Z,1.90
2023-04-20T13:54:24.950Z,1.85
2023-04-20T13:56:53.151Z,1.90
2023-04-20T13:59:21.218Z,1.90
2023-04-20T14:01:49.375Z,1.73
2023-04-20T14:04:19.130Z,1.70
2023-04-20T14:06:47.550Z,1.90
2023-04-20T14:09:15.619Z,1.60
2023-04-20T14:11:43.896Z,1.80
2023-04-20T14:14:12.177Z,1.50
2023-04-20T14:16:44.468Z,1.45
2023-04-20T14:19:12.632Z,1.88
2023-04-20T14:21:44.499Z,1.85
2023-04-20T14:24:12.940Z,1.90
2023-04-20T14:26:41.425Z,1.63
2023-04-20T14:29:09.623Z,1.80
2023-04-20T14:31:37.859Z,2.00
2023-04-20T14:34:06.139Z,1.50
2023-04-20T14:36:34.498Z,1.60
2023-04-20T14:39:04.154Z,1.63
2023-04-20T14:41:33.632Z,1.80
2023-04-20T14:44:01.689Z,1.77
2023-04-20T14:46:30.103Z,1.73
2023-04-20T14:48:58.274Z,1.67
2023-04-20T14:51:27.324Z,1.67
2023-04-20T14:53:55.448Z,1.80
2023-04-20T14:56:25.245Z,1.80
2023-04-20T14:58:53.352Z,1.60
2023-04-20T15:01:21.976Z,1.40
2023-04-20T15:03:50.334Z,1.77
2023-04-20T15:06:18.669Z,1.77
2023-04-20T15:08:46.735Z,1.60
2023-04-20T15:11:14.876Z,1.85
2023-04-20T15:13:44.682Z,1.67
2023-04-20T15:16:12.827Z,1.90
2023-04-20T15:18:40.911Z,1.85
2023-04-20T15:21:10.915Z,1.75
2023-04-20T15:23:39.045Z,1.60
2023-04-20T15:26:09.171Z,1.52
2023-04-20T15:28:37.299Z,1.90
2023-04-20T15:31:08.356Z,1.98
2023-04-20T15:33:36.480Z,1.70
2023-04-20T15:36:04.726Z,1.50
2023-04-20T15:38:32.805Z,1.60
2023-04-20T15:41:01.217Z,1.50
2023-04-20T15:43:33.367Z,1.65
2023-04-20T15:48:32.547Z,1.70
2023-04-20T15:51:08.488Z,1.60
2023-04-20T15:53:37.862Z,1.60
2023-04-20T15:56:09.373Z,1.80
2023-04-20T15:58:37.481Z,2.40
2023-04-20T16:01:05.678Z,1.60
2023-04-20T16:03:35.537Z,1.50
2023-04-20T16:06:04.142Z,1.70
2023-04-20T16:08:32.311Z,1.83
2023-04-20T16:11:00.487Z,1.90
2023-04-20T16:13:29.874Z,1.52
2023-04-20T16:15:59.785Z,1.63
2023-04-20T16:18:29.988Z,1.58
2023-04-20T16:20:59.483Z,2.20
2023-04-20T16:23:27.676Z,2.00
2023-04-20T16:25:56.024Z,1.90
2023-04-20T16:28:24.121Z,2.30
2023-04-20T16:30:52.459Z,2.00
2023-04-20T16:33:21.106Z,1.85
2023-04-20T16:35:49.360Z,2.00
2023-04-20T16:38:20.330Z,1.67
2023-04-20T16:40:48.512Z,2.33
2023-04-20T16:43:17.127Z,1.98
2023-04-20T16:45:45.226Z,1.55
2023-04-20T16:48:13.378Z,1.75
2023-04-20T16:50:42.309Z,1.67
2023-04-20T16:53:10.994Z,2.10
2023-04-20T16:55:40.462Z,1.80
2023-04-20T16:58:08.534Z,1.85
2023-04-20T17:00:36.649Z,1.83
2023-04-20T17:03:10.533Z,1.80
2023-04-20T17:05:41.848Z,2.03
2023-04-20T17:08:10.585Z,1.75
2023-04-20T17:10:40.394Z,1.70
2023-04-20T17:13:08.994Z,1.70
2023-04-20T17:15:37.202Z,1.75
2023-04-20T17:18:06.991Z,1.70
2023-04-20T17:20:35.531Z,1.60
2023-04-20T17:23:03.845Z,1.98
2023-04-20T17:25:32.016Z,2.00
2023-04-20T17:28:02.783Z,1.98
2023-04-20T17:30:32.095Z,1.77
2023-04-20T17:33:00.862Z,2.15
2023-04-20T17:35:29.812Z,1.90
2023-04-20T17:37:59.715Z,2.00
2023-04-20T17:40:28.102Z,2.08
2023-04-20T17:42:56.412Z,1.75
2023-04-20T17:45:27.005Z,1.60
2023-04-20T17:47:57.700Z,1.60
2023-04-20T17:50:26.602Z,1.52
2023-04-20T17:52:55.070Z,1.60
2023-04-20T17:55:24.782Z,1.38
2023-04-20T17:57:53.025Z,1.30
2023-04-20T18:00:24.005Z,1.85
2023-04-20T18:02:54.033Z,1.50
2023-04-20T18:05:22.403Z,1.45
2023-04-20T18:07:50.704Z,1.45
2023-04-20T18:10:20.745Z,1.73
2023-04-20T18:12:49.491Z,1.50
2023-04-20T18:15:18.552Z,1.48
2023-04-20T18:17:47.784Z,1.50
2023-04-20T18:20:19.929Z,1.70
2023-04-20T18:22:51.290Z,2.13
2023-04-20T18:25:23.429Z,1.98
2023-04-20T18:27:51.854Z,1.60
2023-04-20T18:30:20.369Z,1.70
2023-04-20T18:32:49.831Z,1.77
2023-04-20T18:35:21.326Z,1.98
2023-04-20T18:37:52.425Z,1.98
2023-04-20T18:40:21.416Z,2.22
2023-04-20T18:42:49.442Z,2.00
2023-04-20T18:45:21.938Z,2.10
2023-04-20T18:50:22.194Z,1.92
2023-04-20T18:52:51.834Z,2.10
2023-04-20T18:55:21.606Z,1.75
2023-04-20T18:57:50.634Z,2.33
2023-04-20T19:00:25.020Z,2.05
2023-04-20T19:02:54.015Z,2.08
2023-04-20T19:05:28.346Z,2.33
2023-04-20T19:07:57.503Z,2.33
2023-04-20T19:10:26.798Z,2.30
2023-04-20T19:12:57.642Z,2.50
2023-04-20T19:15:30.244Z,2.22
2023-04-20T19:20:28.893Z,2.60
2023-04-20T19:22:58.073Z,2.00
2023-04-20T19:25:30.212Z,2.13
2023-04-20T19:27:59.923Z,2.10
2023-04-20T19:30:28.733Z,2.38
2023-04-20T19:32:59.367Z,2.38
2023-04-20T19:35:30.223Z,2.40
2023-04-20T19:37:58.929Z,2.17
2023-04-20T19:40:28.741Z,2.40
2023-04-20T19:42:58.943Z,2.38
2023-04-20T19:45:40.339Z,2.42
2023-04-20T19:48:09.173Z,2.60
2023-04-20T19:50:40.871Z,2.53
2023-04-20T19:53:09.961Z,2.73
2023-04-20T19:55:38.348Z,2.50
2023-04-20T19:58:09.633Z,2.53
2023-04-20T20:00:39.377Z,2.47
2023-04-20T20:03:08.887Z,2.80
2023-04-20T20:05:41.678Z,2.40
2023-04-20T20:10:37.784Z,2.55
2023-04-20T20:13:09.290Z,2.55
2023-04-20T20:15:38.841Z,2.55
2023-04-20T20:18:07.864Z,2.50
2023-04-20T20:20:37.953Z,2.45
2023-04-20T20:23:07.959Z,2.58
2023-04-20T20:25:36.050Z,2.45
2023-04-20T20:28:04.517Z,2.30
2023-04-20T20:30:32.888Z,2.30
2023-04-20T20:33:01.180Z,2.35
2023-04-20T20:35:31.557Z,2.50
2023-04-20T20:37:59.858Z,2.45
2023-04-20T20:40:29.564Z,2.45
2023-04-20T20:42:57.561Z,2.25
2023-04-20T20:45:25.860Z,2.40
2023-04-20T20:47:53.968Z,2.63
2023-04-20T20:50:22.936Z,2.60
2023-04-20T20:52:51.469Z,3.03
2023-04-20T20:55:19.547Z,2.70
2023-04-20T20:57:48.963Z,3.50
2023-04-20T21:00:17.364Z,2.33
2023-04-20T21:02:45.971Z,2.60
2023-04-20T21:05:14.225Z,2.42
2023-04-20T21:07:42.341Z,2.47
2023-04-20T21:10:12.000Z,2.83
2023-04-20T21:12:40.184Z,2.50
2023-04-20T21:15:11.292Z,2.40
2023-04-20T21:17:39.456Z,2.20
2023-04-20T21:20:09.571Z,2.70
2023-04-20T21:22:37.831Z,2.70
2023-04-20T21:25:07.108Z,2.47
2023-04-20T21:27:35.218Z,2.58
2023-04-20T21:30:03.455Z,2.80
2023-04-20T21:32:32.863Z,2.67
2023-04-20T21:35:01.066Z,2.50
2023-04-20T21:37:29.171Z,2.40
2023-04-20T21:39:57.487Z,2.60
2023-04-20T21:42:25.762Z,2.65
2023-04-20T21:44:54.125Z,2.55
2023-04-20T21:47:22.316Z,2.13
2023-04-20T21:49:51.850Z,2.15
2023-04-20T21:52:20.024Z,2.80
2023-04-20T21:54:48.143Z,2.50
2023-04-20T21:57:16.592Z,2.33
2023-04-20T21:59:44.648Z,2.67
2023-04-20T22:02:12.840Z,2.50
2023-04-20T22:04:41.368Z,2.40
2023-04-20T22:07:11.192Z,2.65
2023-04-20T22:09:39.211Z,2.67
2023-04-20T22:12:09.208Z,3.40
2023-04-20T22:14:37.254Z,2.35
2023-04-20T22:17:08.306Z,2.67
2023-04-20T22:19:36.687Z,2.70
2023-04-20T22:22:04.772Z,2.60
2023-04-20T22:24:34.571Z,2.70
2023-04-20T22:27:02.773Z,3.15
2023-04-20T22:29:30.881Z,2.42
2023-04-20T22:31:59.059Z,2.60
2023-04-20T22:34:27.123Z,2.38
2023-04-20T22:36:55.133Z,2.40
2023-04-20T22:39:23.372Z,2.35
2023-04-20T22:41:52.799Z,2.47
2023-04-20T22:44:20.934Z,2.50
2023-04-20T22:46:50.992Z,2.38
2023-04-20T22:49:19.707Z,2.35
2023-04-20T22:51:48.434Z,2.28
2023-04-20T22:54:16.703Z,2.45
2023-04-20T22:56:44.776Z,2.60
2023-04-20T22:59:14.274Z,2.35
2023-04-20T23:01:42.299Z,2.60
2023-04-20T23:04:10.513Z,2.60
2023-04-20T23:06:38.667Z,3.60
2023-04-20T23:09:08.422Z,2.53
2023-04-20T23:11:38.874Z,2.65
2023-04-20T23:14:07.420Z,2.33
2023-04-20T23:16:38.422Z,2.47
2023-04-20T23:19:06.823Z,2.78
2023-04-20T23:21:34.927Z,2.90
2023-04-20T23:24:02.990Z,2.58
2023-04-20T23:26:31.142Z,2.58
2023-04-20T23:28:59.361Z,2.40
2023-04-20T23:31:27.593Z,2.55
2023-04-20T23:33:57.095Z,2.85
2023-04-20T23:36:25.322Z,2.83
2023-04-20T23:38:53.435Z,2.97
2023-04-20T23:41:21.545Z,3.30
2023-04-20T23:43:49.552Z,2.50
2023-04-20T23:46:18.627Z,2.78
2023-04-20T23:48:46.807Z,2.67
2023-04-20T23:51:16.229Z,3.03
2023-04-20T23:53:44.575Z,2.20
2023-04-20T23:56:12.819Z,2.88
2023-04-20T23:58:40.925Z,2.38
